• Join FlightAware (Why Join?)
  • Login
  • US Flag 
09:00AM EST


 

Airport Tracker/Info


-or-


 

Live Flight TrackerFlight Track Log ✈ SCX8873 ✈ 01-May-2013 ✈ KGRB - KMCO

Flight Track Log - Related Links

Times and Time Zones

All times are in EDT time to prevent confusion due to time zone crossing. See the SCX8873 flight status page for this flight to view local times or setup timezone preferences in your user account.

Time Position Orientation Groundspeed Altitude Reporting Facility
EDT Latitude Longitude Course Direction KTS MPH feet Rate Location/Type
05:07PM 44.5239 -88.2039 183° South 246 283 4,700  Level Minneapolis Center
05:08PM 44.4453 -88.2097 183° South 246 283 7,600 2,820 Climbing Minneapolis Center
05:10PM 44.3722 -88.2133 182° South 258 297 10,600 2,340 Climbing Minneapolis Center
05:11PM 44.2900 -88.2178 182° South 289 333 12,500 2,220 Climbing Minneapolis Center
05:12PM 43.8093 -88.2026 183° South  Level FlightAware Approximate
05:12PM 44.1969 -88.2236 183° South 327 376 15,300  Level Minneapolis Center
05:13PM 43.6964 -88.2096 183° South  Level FlightAware Approximate
05:13PM 44.0986 -88.2286 182° South 347 399 17,700  Level Minneapolis Center
05:14PM 43.9936 -88.2350 183° South 370 426 20,200 2,460 Climbing Minneapolis Center
05:15PM 43.8681 -88.2419 182° South 383 441 22,900 2,280 Climbing Minneapolis Center
05:16PM 43.7567 -88.2478 182° South 396 456 25,000 1,740 Climbing Minneapolis Center
05:17PM 43.6425 -88.2544 182° South 404 465 26,600 1,500 Climbing Minneapolis Center
05:18PM 43.5231 -88.2611 182° South 420 483 28,200 1,500 Climbing Minneapolis Center
05:19PM 43.3986 -88.2675 182° South 434 499 29,800 1,680 Climbing Minneapolis Center
05:20PM 43.2744 -88.2747 182° South 440 506 31,700 1,680 Climbing Minneapolis Center
05:21PM 43.1325 -88.2814 182° South 437 503 33,600 1,500 Climbing Chicago Center
05:22PM 43.0144 -88.2447 167° South 436 502 35,000 1,320 Climbing Chicago Center
05:23PM 42.8769 -88.1947 165° South 439 505 36,400 1,200 Climbing Chicago Center
05:24PM 42.7600 -88.1514 165° South 436 502 37,500 1,200 Climbing Chicago Center
05:25PM 42.6442 -88.1081 165° South 432 497 38,900 720 Climbing Chicago Center
05:26PM 42.5300 -88.0653 165° South 426 490 39,000  Climbing Chicago Center
05:27PM 42.4167 -88.0242 165° South 422 486 39,000  Level Chicago Center
05:28PM 42.3033 -87.9842 165° South 421 484 39,000  Level Chicago Center
05:29PM 42.1925 -87.9392 163° South 418 481 39,000  Level Chicago Center
05:30PM 42.0625 -87.8667 158° South 420 483 39,000  Level Chicago Center
05:31PM 41.9556 -87.8089 158° South 416 479 39,000  Level Chicago Center
05:32PM 41.8464 -87.7486 158° South 422 486 39,000  Level Chicago Center
05:33PM 41.7375 -87.6894 158° South 422 486 39,000  Level Chicago Center
05:34PM 41.6269 -87.6311 158° South 424 488 39,000  Level Chicago Center
05:36PM 41.5169 -87.5725 158° South 425 489 39,000  Level Chicago Center
05:37PM 41.3853 -87.5022 158° South 424 488 39,000  Level Chicago Center
05:38PM 41.2739 -87.4433 158° South 428 493 39,000  Level Chicago Center
05:39PM 41.1619 -87.3842 158° South 432 497 39,000  Level Chicago Center
05:40PM 41.0497 -87.3269 159° South 433 498 39,000  Level Chicago Center
05:41PM 40.9386 -87.2683 158° South 431 496 39,000  Level Chicago Center
05:42PM 40.8253 -87.2097 159° South 437 503 39,000  Level Chicago Center
05:43PM 40.6906 -87.1394 158° South 436 502 39,000  Level Chicago Center
05:44PM 40.5722 -87.0789 159° South 440 506 39,000  Level Chicago Center
05:45PM 40.4617 -87.0103 155° Southeast 436 502 39,000  Level Chicago Center
05:46PM 40.3511 -86.9400 154° Southeast 439 505 39,000  Level Chicago Center
05:47PM 40.2406 -86.8703 154° Southeast 438 504 39,000  Level Chicago Center
05:48PM 40.1272 -86.8017 155° Southeast 443 510 39,000  Level Chicago Center
05:48PM 40.0708 -86.7650 154° Southeast 444 511 39,000  Level Indianapolis Center
05:49PM 39.9603 -86.6964 155° Southeast 440 506 39,000  Level Indianapolis Center
05:50PM 39.8500 -86.6283 155° Southeast 438 504 39,000  Level Indianapolis Center
05:51PM 39.7222 -86.5508 155° Southeast 437 503 39,000  Level Indianapolis Center
05:53PM 39.6131 -86.4831 154° Southeast 438 504 39,000  Level Indianapolis Center
05:54PM 39.5044 -86.4156 154° Southeast 436 502 39,000  Level Indianapolis Center
05:55PM 39.3944 -86.3492 155° Southeast 436 502 39,000  Level Indianapolis Center
05:56PM 39.2836 -86.2814 155° Southeast 437 503 39,000  Level Indianapolis Center
05:57PM 39.1553 -86.2025 155° Southeast 436 502 39,000  Level Indianapolis Center
05:58PM 39.0450 -86.1364 155° Southeast 435 501 39,000  Level Indianapolis Center
05:59PM 38.9364 -86.0717 155° Southeast 432 497 39,000  Level Indianapolis Center
06:00PM 38.8347 -86.0100 155° Southeast 431 496 39,000  Level Indianapolis Center
06:01PM 38.7247 -85.9447 155° Southeast 432 497 39,000  Level Indianapolis Center
06:02PM 38.5942 -85.8658 155° Southeast 430 495 39,000  Level Indianapolis Center
06:03PM 38.4833 -85.8014 156° South 432 497 39,000  Level Indianapolis Center
06:04PM 38.3731 -85.7353 155° Southeast 434 499 39,000  Level Indianapolis Center
06:05PM 38.2628 -85.6708 155° Southeast 435 501 39,000  Level Indianapolis Center
06:06PM 38.1542 -85.6067 155° Southeast 429 494 39,000  Level Indianapolis Center
06:07PM 38.0369 -85.5597 162° South 440 506 39,000  Level Indianapolis Center
06:08PM 37.9214 -85.5281 168° South 426 490 39,000  Level Indianapolis Center
06:09PM 37.7839 -85.4911 168° South 420 483 39,000  Level Indianapolis Center
06:10PM 37.6692 -85.4592 168° South 421 484 39,000  Level Indianapolis Center
06:11PM 37.5539 -85.4297 169° South 423 487 39,000  Level Indianapolis Center
06:12PM 37.4392 -85.4008 169° South 423 487 39,000  Level Indianapolis Center
06:13PM 37.3253 -85.3681 167° South 420 483 39,000  Level Indianapolis Center
06:14PM 37.1906 -85.3333 168° South 422 486 39,000  Level Indianapolis Center
06:15PM 37.0753 -85.3033 168° South 423 487 39,000  Level Indianapolis Center
06:16PM 36.9711 -85.2761 168° South 419 482 39,000  Level Indianapolis Center
06:17PM 36.8564 -85.2456 168° South 420 483 39,000  Level Indianapolis Center
06:18PM 36.7208 -85.2106 168° South 415 478 39,000  Level Indianapolis Center
06:19PM 36.6083 -85.1814 168° South 415 478 39,000  Level Indianapolis Center
06:20PM 36.4958 -85.1511 168° South 413 475 39,000  Level Indianapolis Center
06:21PM 36.3831 -85.1231 169° South 412 474 39,000  Level Indianapolis Center
06:22PM 36.2711 -85.0939 168° South 412 474 39,000  Level Indianapolis Center
06:24PM 36.1586 -85.0644 168° South 413 475 39,000  Level Indianapolis Center
06:24PM 36.0689 -85.0456 170° South 413 475 39,000  Level Atlanta Center
06:25PM 35.9542 -85.0161 168° South 413 475 39,000  Level Atlanta Center
06:26PM 35.8522 -84.9867 167° South 420 483 39,000  Level Atlanta Center
06:27PM 35.7356 -84.9622 170° South 425 489 39,000  Level Atlanta Center
06:28PM 35.6253 -84.9303 167° South 425 489 39,000  Level Atlanta Center
06:29PM 35.5150 -84.9036 169° South 419 482 39,000  Level Atlanta Center
06:30PM 35.4047 -84.8744 168° South 409 471 39,000  Level Atlanta Center
06:31PM 35.2942 -84.8481 169° South 409 471 39,000  Level Atlanta Center
06:32PM 35.1817 -84.8189 168° South 409 471 39,000  Level Atlanta Center
06:33PM 35.0733 -84.7900 168° South 409 471 39,000  Level Atlanta Center
06:34PM 34.9650 -84.7661 170° South 409 471 39,000  Level Atlanta Center
06:35PM 34.8567 -84.7375 168° South 409 471 39,000  Level Atlanta Center
06:36PM 34.7503 -84.7111 168° South 404 465 39,000  Level Atlanta Center
06:37PM 34.6378 -84.6800 167° South 388 447 39,000  Level Atlanta Center
06:38PM 34.5317 -84.6539 169° South 388 447 39,000  Level Atlanta Center
06:39PM 34.4231 -84.6281 169° South 388 447 39,000  Level Atlanta Center
06:40PM 34.3169 -84.6022 169° South 393 452 39,000  Level Atlanta Center
06:41PM 34.2125 -84.5764 168° South 385 443 39,000  Level Atlanta Center
06:42PM 34.1106 -84.5556 170° South 392 451 39,000  Level Atlanta Center
06:43PM 34.0061 -84.5275 167° South 397 457 39,000  Level Atlanta Center
06:44PM 33.8997 -84.5042 170° South 397 457 39,000  Level Atlanta Center
06:45PM 33.7914 -84.4936 175° South 397 457 39,000  Level Atlanta Center
06:46PM 33.6908 -84.5431 202° Southwest 366 421 39,000  Level Atlanta Center
06:47PM 33.5842 -84.6022 205° Southwest 384 442 39,000  Level Atlanta Center
06:48PM 33.4800 -84.5642 163° South 367 422 39,000  Level Atlanta Center
06:49PM 33.3800 -84.5139 157° South 383 441 39,000  Level Atlanta Center
06:50PM 33.2800 -84.4636 157° South 395 455 39,000  Level Atlanta Center
06:51PM 33.1883 -84.4211 159° South 390 449 39,000  Level Atlanta Center
06:52PM 33.0861 -84.3736 159° South 395 455 39,000  Level Atlanta Center
06:53PM 32.9842 -84.3236 158° South 389 448 39,000  Level Atlanta Center
06:54PM 32.8861 -84.2614 152° Southeast 394 453 39,000  Level Atlanta Center
06:55PM 32.7881 -84.1969 151° Southeast 399 459 39,000  Level Atlanta Center
06:56PM 32.6817 -84.1253 150° Southeast 399 459 39,000  Level Atlanta Center
06:57PM 32.5814 -84.0611 152° Southeast 404 465 39,000  Level Atlanta Center
06:58PM 32.4792 -83.9994 153° Southeast 409 471 39,000  Level Atlanta Center
07:00PM 32.2964 -83.8806 151° Southeast 418 481 39,000  Level Jacksonville Center
07:01PM 32.1967 -83.8181 152° Southeast 418 481 39,000  Level Jacksonville Center
07:02PM 32.0947 -83.7533 152° Southeast 412 474 39,000 -540 Level Jacksonville Center
07:03PM 31.9969 -83.6911 152° Southeast 412 474 38,000 -960 Descending Jacksonville Center
07:04PM 31.8992 -83.6267 151° Southeast 407 468 37,100 -960 Descending Jacksonville Center
07:05PM 31.7972 -83.5622 152° Southeast 407 468 36,100 -960 Descending Jacksonville Center
07:06PM 31.6933 -83.4981 152° Southeast 415 478 35,200 -780 Descending Jacksonville Center
07:07PM 31.5869 -83.4364 154° Southeast 420 483 34,600 -780 Descending Jacksonville Center
07:08PM 31.4808 -83.3700 152° Southeast 425 489 33,700 -900 Descending Jacksonville Center
07:09PM 31.3828 -83.3111 153° Southeast 430 495 32,900 -900 Descending Jacksonville Center
07:10PM 31.2703 -83.2475 154° Southeast 435 501 32,000 -960 Descending Jacksonville Center
07:11PM 31.1597 -83.1792 152° Southeast 440 506 31,000 -540 Descending Jacksonville Center
07:12PM 31.0514 -83.1061 150° Southeast 445 512 31,000  Level Jacksonville Center
07:13PM 30.9408 -83.0378 152° Southeast 451 519 31,000 -540 Level Jacksonville Center
07:14PM 30.8219 -82.9653 152° Southeast 443 510 30,000 -1,920 Descending Jacksonville Center
07:15PM 30.7197 -82.9069 154° Southeast 443 510 27,200 -1,920 Descending Jacksonville Center
07:16PM 30.6089 -82.8394 152° Southeast 443 510 26,200 -1,080 Descending Jacksonville Center
07:17PM 30.4919 -82.7625 150° Southeast 443 510 25,100 -600 Descending Jacksonville Center
07:18PM 30.3853 -82.7000 153° Southeast 443 510 25,000 -120 Descending Jacksonville Center
07:19PM 30.2997 -82.6472 152° Southeast 433 498 24,900  Descending Jacksonville Center
07:20PM 30.1783 -82.5803 155° Southeast 433 498 25,000  Climbing Jacksonville Center
07:21PM 30.0592 -82.5086 152° Southeast 433 498 25,000 -60 Level Jacksonville Center
07:22PM 29.9506 -82.4492 155° Southeast 428 493 24,900 -60 Descending Jacksonville Center
07:23PM 29.8375 -82.3944 157° South 428 493 24,900  Level Jacksonville Center
07:24PM 29.7372 -82.3425 156° South 438 504 25,000  Climbing Jacksonville Center
07:25PM 29.6242 -82.2881 157° South 443 510 25,000  Level Jacksonville Center
07:26PM 29.5092 -82.2339 158° South 443 510 25,000 -1,140 Level Jacksonville Center
07:27PM 29.3961 -82.1797 157° South 443 510 22,800 -2,460 Descending Jacksonville Center
07:28PM 29.2892 -82.1283 157° South 438 504 20,100 -2,520 Descending Jacksonville Center
07:29PM 29.1931 -82.0814 157° South 407 468 17,800 -1,800 Descending Jacksonville Center
07:30PM 29.1050 -82.0394 157° South 368 423 16,600 -1,560 Descending Jacksonville Center
07:31PM 29.0214 -81.9997 157° South 343 395 14,700 -1,800 Descending Jacksonville Center
07:32PM 28.9394 -81.9603 157° South 327 376 13,000 -1,800 Descending Jacksonville Center
07:33PM 28.8619 -81.9111 151° Southeast 321 369 11,100 -1,200 Descending Jacksonville Center
07:34PM 28.7969 -81.8503 141° Southeast 308 354 10,700 -600 Descending Jacksonville Center
07:34PM 28.7667 -81.8167 136° Southeast 286 329 10,300 -1,260 Descending Orlando TRACON
07:35PM 28.7167 -81.7667 139° Southeast 263 303 9,000 -1,380 Descending Orlando TRACON
07:36PM 28.6500 -81.7167 147° Southeast 256 295 7,600 -1,440 Descending Orlando TRACON
07:37PM 28.6000 -81.6667 139° Southeast 252 290 6,200 -840 Descending Orlando TRACON
07:38PM 28.5500 -81.6167 139° Southeast 227 261 6,000 -120 Descending Orlando TRACON
07:39PM 28.5167 -81.5667 127° Southeast 216 249 6,000 -120 Level Orlando TRACON
07:40PM 28.4667 -81.5333 150° Southeast 220 253 5,800 -480 Descending Orlando TRACON
07:41PM 28.4167 -81.4833 139° Southeast 217 250 5,000 -660 Descending Orlando TRACON
07:43PM 28.3667 -81.4333 139° Southeast 222 255 4,400 -720 Descending Orlando TRACON
07:44PM 28.3167 -81.3833 139° Southeast 221 254 3,500 -840 Descending Orlando TRACON
07:44PM 28.2667 -81.3833 180° South 225 259 2,900 -900 Descending Orlando TRACON
07:45PM 28.2500 -81.3333 111° Southeast 211 243 1,900 -660 Descending Orlando TRACON
07:46PM 28.3000 -81.3167 16° North 207 238 1,600 -300 Descending Orlando TRACON
07:47PM 28.3500 -81.3167 360° North 161 185 1,400 -240 Descending Orlando TRACON
07:49PM 28.4167 -81.3000 24° Northeast  Level FlightAware Approximate
07:56PM 28.4294 -81.3090 24° Northeast  Level Estimated
07:57PM 28.4294 -81.3090 24° Northeast  Level Estimated
07:58PM 28.4294 -81.3090 24° Northeast  Level Estimated
07:59PM 28.4294 -81.3090 24° Northeast  Level Estimated
08:00PM 28.4294 -81.3090 24° Northeast  Level Estimated